Time;durP1;ratioP1;P1;durP2;ratioP2;P2;SDS_P1;SDS_P2;PMS_P1;PMS_P2;Temp;Humidity;BMP_temperature;BMP_pressure;BME280_temperature;BME280_humidity;BME280_pressure;Samples;Min_cycle;Max_cycle;Signal;HPM_P1;HPM_P2
2021/10/09 00:00:43;;;;;;;8.85;6.15;;;;;;;15.76;57.47;102292.41;5023518;28;103277;-90
2021/10/09 00:03:09;;;;;;;9.15;6.43;;;;;;;15.77;57.52;102289.41;5024765;28;101725;-90
2021/10/09 00:05:37;;;;;;;9.63;6.10;;;;;;;15.76;57.50;102284.19;5023778;28;101637;-86
2021/10/09 00:08:11;;;;;;;10.20;6.43;;;;;;;15.75;57.66;102286.09;5028191;28;102091;-86
2021/10/09 00:10:37;;;;;;;12.55;6.50;;;;;;;15.77;57.40;102283.09;5036430;28;102867;-86
2021/10/09 00:13:04;;;;;;;10.77;6.55;;;;;;;15.76;57.28;102286.91;5023990;28;101759;-91
2021/10/09 00:15:32;;;;;;;9.48;6.85;;;;;;;15.75;57.37;102288.84;5023420;28;101965;-90
2021/10/09 00:18:00;;;;;;;10.07;6.68;;;;;;;15.75;57.63;102297.06;5025002;28;101483;-90
2021/10/09 00:20:27;;;;;;;11.20;6.47;;;;;;;15.75;57.51;102282.53;5023381;28;102402;-90
2021/10/09 00:22:55;;;;;;;9.52;6.53;;;;;;;15.75;57.34;102286.09;5022603;28;102022;-90
2021/10/09 00:25:22;;;;;;;9.70;6.93;;;;;;;15.75;57.66;102290.78;5023422;28;101894;-89
2021/10/09 00:27:48;;;;;;;9.02;6.75;;;;;;;15.75;57.30;102291.59;5022307;28;102029;-89
2021/10/09 00:30:15;;;;;;;10.57;6.65;;;;;;;15.76;57.19;102292.41;5013790;28;102814;-90
2021/10/09 00:32:42;;;;;;;10.48;6.28;;;;;;;15.76;57.22;102295.16;5023569;28;101942;-89
2021/10/09 00:35:09;;;;;;;10.02;6.28;;;;;;;15.76;57.67;102295.16;5023558;28;101943;-88
2021/10/09 00:37:36;;;;;;;9.90;6.75;;;;;;;15.75;57.61;102294.34;5023591;28;102135;-90
2021/10/09 00:40:05;;;;;;;9.93;7.15;;;;;;;15.75;57.51;102290.78;5023419;28;103313;-90
2021/10/09 00:42:32;;;;;;;9.35;6.65;;;;;;;15.75;57.48;102288.84;5022948;28;101858;-85
2021/10/09 00:44:58;;;;;;;12.50;6.80;;;;;;;15.75;57.35;102288.03;5023023;28;101840;-85
2021/10/09 00:47:25;;;;;;;12.73;6.97;;;;;;;15.75;57.62;102290.78;5023179;28;102061;-85
2021/10/09 00:49:52;;;;;;;12.70;7.07;;;;;;;15.74;57.45;102278.97;5023208;28;102776;-91
2021/10/09 00:52:19;;;;;;;10.82;6.63;;;;;;;15.75;57.34;102277.03;5023012;28;101668;-89
2021/10/09 00:54:47;;;;;;;9.40;6.70;;;;;;;15.75;57.50;102274.31;5023170;28;101977;-89
2021/10/09 00:57:19;;;;;;;8.45;6.25;;;;;;;15.74;57.75;102267.16;5024584;28;102042;-90
2021/10/09 00:59:49;;;;;;;9.20;6.60;;;;;;;15.74;57.44;102273.47;5021456;28;102724;-89
2021/10/09 01:02:16;;;;;;;10.60;6.57;;;;;;;15.73;57.38;102260.84;5023613;28;102026;-90
2021/10/09 01:04:45;;;;;;;8.52;6.10;;;;;;;15.73;57.51;102266.34;5022938;28;103506;-90
2021/10/09 01:07:12;;;;;;;8.45;6.20;;;;;;;15.73;57.26;102254.53;5024125;28;102012;-89
2021/10/09 01:09:39;;;;;;;8.93;5.97;;;;;;;15.74;57.63;102258.94;5010216;28;102656;-89
2021/10/09 01:12:06;;;;;;;9.75;6.45;;;;;;;15.73;57.38;102258.13;5022834;28;101791;-89
2021/10/09 01:14:33;;;;;;;9.85;6.50;;;;;;;15.73;57.08;102257.28;5022564;27;102004;-90
2021/10/09 01:17:00;;;;;;;10.30;7.15;;;;;;;15.73;57.55;102252.63;5032343;27;102157;-90
2021/10/09 01:19:26;;;;;;;8.93;6.45;;;;;;;15.73;57.25;102262.78;5042869;27;102850;-90
2021/10/09 01:21:54;;;;;;;7.18;5.90;;;;;;;15.73;57.13;102260.03;5043644;27;101748;-89
2021/10/09 01:24:21;;;;;;;11.50;6.95;;;;;;;15.73;57.61;102254.53;5043017;27;101633;-89
2021/10/09 01:26:50;;;;;;;10.38;6.53;;;;;;;15.72;57.78;102263.84;5026992;27;102004;-89
2021/10/09 01:29:17;;;;;;;9.43;6.90;;;;;;;15.73;57.47;102265.53;5022585;27;102704;-89
2021/10/09 01:31:43;;;;;;;10.50;7.03;;;;;;;15.73;57.36;102265.53;5023383;27;101948;-89
2021/10/09 01:34:10;;;;;;;8.57;6.55;;;;;;;15.73;57.53;102265.53;5022785;28;101985;-92
2021/10/09 01:36:39;;;;;;;9.07;6.68;;;;;;;15.72;57.37;102269.34;5023875;27;102028;-89
2021/10/09 01:39:07;;;;;;;;;;;;;;;15.72;57.23;102269.34;5022703;27;102787;-89
2021/10/09 01:41:37;;;;;;;9.60;6.37;;;;;;;15.73;57.59;102276.50;5021617;28;101795;-90
2021/10/09 01:44:04;;;;;;;8.80;6.30;;;;;;;15.72;57.59;102274.84;5021461;28;101641;-89
2021/10/09 01:46:31;;;;;;;9.60;6.75;;;;;;;15.72;57.04;102281.13;5022430;28;102073;-90
2021/10/09 01:48:57;;;;;;;10.38;6.45;;;;;;;15.73;57.53;102287.47;5020596;28;102479;-90
2021/10/09 01:51:26;;;;;;;8.55;6.07;;;;;;;15.72;57.42;102286.63;5022609;28;101901;-90
2021/10/09 01:53:52;;;;;;;11.57;6.85;;;;;;;15.72;57.32;102286.63;5022239;27;102108;-89
2021/10/09 01:56:20;;;;;;;9.65;6.55;;;;;;;15.72;57.12;102292.13;5023401;28;102016;-89
2021/10/09 01:58:47;;;;;;;9.35;6.85;;;;;;;15.73;57.19;102287.47;5022039;27;103831;-89
2021/10/09 02:01:13;;;;;;;10.38;6.78;;;;;;;15.72;57.36;102285.81;5023029;27;101680;-90
2021/10/09 02:03:40;;;;;;;11.02;7.13;;;;;;;15.72;57.47;102288.56;5022083;28;101698;-88
2021/10/09 02:06:06;;;;;;;11.63;6.63;;;;;;;15.72;57.38;102297.59;5021435;28;102043;-85
2021/10/09 02:08:33;;;;;;;10.52;6.75;;;;;;;15.70;57.57;102294.31;5040981;27;103887;-85
2021/10/09 02:11:03;;;;;;;10.75;6.28;;;;;;;15.72;57.33;102299.53;5022663;28;102118;-85
2021/10/09 02:27:12;;;;;;;9.70;6.68;;;;;;;15.70;57.49;102283.34;5021965;27;102194;-85
2021/10/09 02:29:40;;;;;;;10.18;7.00;;;;;;;15.72;57.33;102283.06;5020122;28;102766;-91
2021/10/09 02:32:07;;;;;;;9.90;6.65;;;;;;;15.71;57.59;102281.41;5021096;28;102111;-90
2021/10/09 02:34:34;;;;;;;12.00;7.28;;;;;;;15.72;57.24;102285.81;5020416;28;101973;-90
2021/10/09 02:37:00;;;;;;;12.75;6.63;;;;;;;15.72;57.49;102294.03;5023091;28;101980;-90
2021/10/09 02:39:29;;;;;;;12.00;6.53;;;;;;;15.70;57.84;102291.56;5040522;27;102237;-89
2021/10/09 02:41:55;;;;;;;10.40;6.70;;;;;;;15.70;57.65;102286.09;5042016;27;101782;-89
2021/10/09 02:44:22;;;;;;;10.18;7.05;;;;;;;15.70;57.72;102282.53;5031457;27;101820;-88
2021/10/09 02:46:50;;;;;;;10.48;7.55;;;;;;;15.71;57.60;102284.16;5027597;28;102099;-89
2021/10/09 02:49:16;;;;;;;10.23;6.95;;;;;;;15.70;57.36;102282.53;5020711;28;102877;-89
2021/10/09 02:51:43;;;;;;;12.05;7.80;;;;;;;15.70;57.37;102282.53;5022086;28;102139;-89
2021/10/09 02:54:10;;;;;;;11.98;7.25;;;;;;;15.71;57.64;102290.47;5021325;28;101803;-89
2021/10/09 02:56:36;;;;;;;12.02;6.88;;;;;;;15.70;57.39;102285.28;5021297;28;102116;-90
2021/10/09 02:59:03;;;;;;;11.07;6.97;;;;;;;15.70;57.46;102272.38;5018806;28;102719;-85
2021/10/09 03:01:31;;;;;;;9.73;6.93;;;;;;;15.69;57.49;102280.88;5016803;28;102032;-90
2021/10/09 03:03:59;;;;;;;10.23;7.15;;;;;;;15.69;57.68;102276.22;5016631;28;102280;-91
2021/10/09 03:06:25;;;;;;;9.70;7.38;;;;;;;15.69;57.76;102269.91;5016061;28;102210;-90
2021/10/09 03:08:52;;;;;;;10.90;7.80;;;;;;;15.68;57.26;102262.75;5020129;28;102705;-89
2021/10/09 03:11:18;;;;;;;11.48;8.07;;;;;;;15.69;57.38;102269.91;5019905;28;101846;-85
2021/10/09 03:13:45;;;;;;;9.60;7.35;;;;;;;15.69;57.35;102264.41;5019537;28;102045;-86
2021/10/09 03:16:12;;;;;;;11.90;7.70;;;;;;;15.69;57.61;102273.47;5005461;28;102030;-86
2021/10/09 03:18:38;;;;;;;11.05;7.53;;;;;;;15.69;57.62;102264.41;5004183;28;102684;-85
2021/10/09 03:21:06;;;;;;;10.70;7.75;;;;;;;15.69;57.40;102267.16;5023246;28;102157;-86
2021/10/09 03:23:32;;;;;;;10.05;7.57;;;;;;;15.69;57.57;102261.66;5023304;28;101742;-85
2021/10/09 03:25:59;;;;;;;11.23;7.80;;;;;;;15.68;57.30;102246.28;5038290;27;102129;-86
2021/10/09 03:28:25;;;;;;;10.52;6.88;;;;;;;15.68;57.58;102254.50;5041781;28;102391;-85
2021/10/09 03:30:52;;;;;;;9.98;7.95;;;;;;;15.67;57.65;102252.88;5023535;27;101916;-85
2021/10/09 03:33:18;;;;;;;13.68;8.13;;;;;;;15.68;57.50;102252.59;5024148;28;101968;-85
2021/10/09 03:35:45;;;;;;;11.88;8.20;;;;;;;15.67;57.22;102255.59;5024693;28;102248;-85
2021/10/09 03:38:13;;;;;;;12.10;8.00;;;;;;;15.68;57.64;102260.00;5021756;28;102819;-85
2021/10/09 03:40:43;;;;;;;9.18;7.40;;;;;;;15.68;57.50;102260.00;5022839;28;102042;-85
2021/10/09 03:43:14;;;;;;;10.90;7.95;;;;;;;15.67;57.37;102252.88;5004330;28;101845;-86
2021/10/09 03:46:04;;;;;;;10.93;8.23;;;;;;;15.67;57.55;102264.66;5015192;28;101793;-85
2021/10/09 03:48:49;;;;;;;13.30;8.13;;;;;;;15.67;57.38;102261.09;5022808;28;102757;-86
2021/10/09 03:54:01;;;;;;;12.35;8.38;;;;;;;15.66;57.46;102246.56;5044393;27;101969;-86
2021/10/09 03:56:28;;;;;;;10.30;7.32;;;;;;;15.66;57.39;102251.22;5039546;27;102201;-88
2021/10/09 03:58:55;;;;;;;10.70;8.20;;;;;;;15.66;57.52;102254.78;5024980;27;102733;-90
2021/10/09 04:01:22;;;;;;;12.25;9.40;;;;;;;15.66;57.33;102253.97;5029602;28;101771;-86
2021/10/09 04:03:48;;;;;;;11.63;8.13;;;;;;;15.66;57.63;102241.06;5021563;27;101897;-87
2021/10/09 04:06:15;;;;;;;11.40;8.63;;;;;;;15.65;57.54;102253.13;5024210;28;102042;-87
2021/10/09 04:08:42;;;;;;;11.85;8.30;;;;;;;15.66;57.62;102249.31;5017415;28;104144;-91
2021/10/09 04:11:10;;;;;;;11.77;7.85;;;;;;;15.65;57.85;102253.13;5012117;28;102142;-91
2021/10/09 04:13:36;;;;;;;9.68;7.32;;;;;;;15.65;57.53;102260.50;5017813;28;102068;-91
2021/10/09 04:16:03;;;;;;;10.52;8.13;;;;;;;15.65;57.56;102260.50;5013836;28;102286;-91
2021/10/09 04:18:30;;;;;;;11.48;8.70;;;;;;;15.65;57.66;102266.84;5018272;28;102811;-90
2021/10/09 04:20:57;;;;;;;11.43;8.50;;;;;;;15.65;57.53;102265.97;5018151;28;102165;-91
2021/10/09 04:23:23;;;;;;;10.90;7.50;;;;;;;15.65;57.65;102268.72;5016314;28;102204;-90
2021/10/09 04:25:50;;;;;;;12.50;8.38;;;;;;;15.63;57.47;102275.31;5019247;28;102170;-86
2021/10/09 04:28:18;;;;;;;11.48;8.40;;;;;;;15.63;57.33;102275.31;5019872;28;102772;-92
2021/10/09 04:30:44;;;;;;;12.13;8.20;;;;;;;15.65;57.59;102268.72;5007960;28;102080;-89
2021/10/09 04:33:10;;;;;;;10.02;7.95;;;;;;;15.64;57.69;102267.91;5030458;27;102048;-91
2021/10/09 04:35:37;;;;;;;12.05;9.07;;;;;;;15.63;57.27;102263.53;5036285;28;102057;-90
2021/10/09 04:38:07;;;;;;;11.60;8.77;;;;;;;15.63;57.41;102275.31;5023723;28;102713;-91
2021/10/09 04:40:34;;;;;;;12.00;8.57;;;;;;;15.63;57.27;102277.25;5016173;28;102176;-86
2021/10/09 04:43:01;;;;;;;11.13;8.00;;;;;;;15.61;57.39;102284.91;5014539;28;102135;-86
2021/10/09 04:45:29;;;;;;;9.55;7.65;;;;;;;15.61;57.69;102283.00;5018606;28;102193;-90
2021/10/09 04:47:55;;;;;;;10.07;7.38;;;;;;;15.61;57.80;102291.25;5023925;28;102783;-92
2021/10/09 04:50:22;;;;;;;13.93;8.10;;;;;;;15.61;57.78;102291.25;5023996;27;101571;-90
2021/10/09 04:52:48;;;;;;;13.10;9.13;;;;;;;15.59;57.47;102293.41;5023238;28;101738;-90
2021/10/09 04:55:15;;;;;;;11.23;7.88;;;;;;;15.60;57.81;102284.09;5022217;28;102020;-91
2021/10/09 04:57:41;;;;;;;10.65;7.90;;;;;;;15.59;57.62;102287.94;5023022;28;102725;-92
2021/10/09 05:00:09;;;;;;;10.98;8.38;;;;;;;15.60;57.39;102288.75;5023005;28;102366;-94
2021/10/09 05:02:37;;;;;;;11.82;8.48;;;;;;;15.59;57.21;102282.44;5023049;28;101774;-91
2021/10/09 05:05:04;;;;;;;16.15;9.30;;;;;;;15.58;57.27;102275.31;5023519;28;102112;-92
2021/10/09 05:07:32;;;;;;;12.77;8.75;;;;;;;15.58;57.35;102263.50;5022594;28;102759;-91
2021/10/09 05:09:59;;;;;;;12.85;8.77;;;;;;;15.56;57.43;102261.00;5023656;28;101640;-91
2021/10/09 05:12:25;;;;;;;12.45;8.32;;;;;;;15.56;57.51;102277.47;5021522;28;101530;-92
2021/10/09 05:14:51;;;;;;;13.07;8.32;;;;;;;15.58;57.21;102274.50;5023693;28;102086;-92
2021/10/09 05:17:18;;;;;;;10.55;7.40;;;;;;;15.56;57.75;102277.47;5023025;28;102382;-92
2021/10/09 05:19:46;;;;;;;12.32;7.47;;;;;;;15.57;57.64;102290.09;5023505;28;101657;-91
2021/10/09 05:22:12;;;;;;;12.30;7.55;;;;;;;15.56;57.17;102298.63;5021587;28;101651;-91
2021/10/09 05:24:39;;;;;;;13.25;8.02;;;;;;;15.55;57.59;102306.03;5023114;28;101976;-90
2021/10/09 05:27:06;;;;;;;15.50;8.93;;;;;;;15.56;57.40;102310.41;5022712;28;102850;-90
2021/10/09 05:29:33;;;;;;;14.40;8.90;;;;;;;15.55;57.64;102310.69;5023589;28;102167;-91
2021/10/09 05:32:04;;;;;;;8.43;6.35;;;;;;;15.55;57.42;102314.25;5022923;28;102003;-91
2021/10/09 05:34:32;;;;;;;9.55;6.95;;;;;;;15.54;57.65;102309.88;5016660;27;102224;-89
2021/10/09 05:37:00;;;;;;;10.45;7.90;;;;;;;15.54;57.23;102317.25;5020967;28;102704;-90
2021/10/09 05:39:27;;;;;;;9.90;7.15;;;;;;;15.54;57.08;102312.59;5022545;28;101762;-91
2021/10/09 05:41:54;;;;;;;8.48;6.60;;;;;;;15.53;57.50;102316.44;5019843;28;101561;-90
2021/10/09 05:44:20;;;;;;;9.13;7.22;;;;;;;15.54;57.36;102307.13;5003676;28;102037;-91
2021/10/09 05:46:47;;;;;;;9.93;7.50;;;;;;;15.54;57.24;102312.59;5001856;28;102761;-90
2021/10/09 05:49:14;;;;;;;10.90;7.20;;;;;;;15.54;57.33;102304.38;5002836;28;101891;-91
2021/10/09 05:51:52;;;;;;;10.10;6.93;;;;;;;15.54;57.53;102307.13;5002341;28;102020;-91
2021/10/09 05:57:04;;;;;;;9.45;6.82;;;;;;;15.52;57.15;102303.81;5001929;28;102723;-89
2021/10/09 05:59:58;;;;;;;9.82;6.53;;;;;;;15.53;57.60;102296.41;5002559;28;102067;-90
2021/10/09 07:01:58;;;;;;;9.13;6.40;;;;;;;15.50;57.28;102297.75;4953306;28;102787;-90
2021/10/09 07:04:25;;;;;;;9.98;5.95;;;;;;;15.50;57.55;102294.19;5043324;22;102160;-84
2021/10/09 07:06:54;;;;;;;7.82;5.72;;;;;;;15.50;57.26;102289.50;4979896;28;102541;-86
2021/10/09 07:09:20;;;;;;;8.53;5.77;;;;;;;15.50;57.55;102296.91;4988620;28;102694;-84
2021/10/09 07:11:47;;;;;;;8.07;6.20;;;;;;;15.50;57.42;102284.03;4992580;28;102817;-84
2021/10/09 07:14:17;;;;;;;8.35;5.85;;;;;;;15.50;57.27;102285.94;4994488;28;102229;-90
2021/10/09 07:16:49;;;;;;;8.50;5.45;;;;;;;15.49;57.30;102287.88;4994862;28;102308;-86
2021/10/09 07:19:16;;;;;;;8.80;5.43;;;;;;;15.49;57.53;102290.63;4983451;28;102711;-87
2021/10/09 07:21:43;;;;;;;10.98;5.75;;;;;;;15.49;57.50;102295.28;4977850;28;103719;-86
2021/10/09 07:24:10;;;;;;;8.63;5.55;;;;;;;15.49;57.52;102295.28;5003015;28;102171;-87
2021/10/09 07:26:42;;;;;;;8.75;6.05;;;;;;;15.49;57.52;102292.53;4977211;28;102656;-87
2021/10/09 07:29:10;;;;;;;9.23;5.57;;;;;;;15.49;57.46;102301.59;4998384;28;102288;-87
2021/10/09 07:31:39;;;;;;;8.10;5.63;;;;;;;15.50;57.55;102302.41;4992270;28;103438;-87
2021/10/09 07:34:05;;;;;;;9.00;5.13;;;;;;;15.49;57.33;102296.09;4984102;28;102636;-86
2021/10/09 07:36:33;;;;;;;7.43;5.53;;;;;;;15.49;57.31;102298.03;4990962;28;103831;-88
2021/10/09 07:38:59;;;;;;;11.75;5.45;;;;;;;15.49;57.23;102298.03;4998587;28;102307;-85
2021/10/09 07:41:27;;;;;;;8.68;5.28;;;;;;;15.48;57.44;102291.72;4993151;28;103640;-86
2021/10/09 07:43:53;;;;;;;9.88;5.75;;;;;;;15.49;57.35;102287.88;4992099;28;102316;-81
2021/10/09 07:46:21;;;;;;;8.13;5.50;;;;;;;15.48;57.20;102297.19;4986787;28;102525;-81
2021/10/09 07:48:48;;;;;;;7.95;5.43;;;;;;;15.48;57.13;102299.13;4995710;28;102366;-81
2021/10/09 07:51:15;;;;;;;9.45;5.53;;;;;;;15.48;57.54;102302.69;4992576;28;102732;-81
2021/10/09 07:53:41;;;;;;;11.50;6.32;;;;;;;15.48;57.40;102302.69;4991172;28;102353;-80
2021/10/09 07:56:08;;;;;;;9.68;5.53;;;;;;;15.49;57.17;102309.00;4991046;28;102238;-81
2021/10/09 07:58:35;;;;;;;8.95;5.50;;;;;;;15.48;57.33;102308.19;4981137;28;102263;-80
2021/10/09 08:01:01;;;;;;;8.52;5.95;;;;;;;15.49;57.27;102303.50;4990420;28;102712;-84
2021/10/09 08:03:28;;;;;;;9.43;5.60;;;;;;;15.48;57.34;102316.41;4995830;28;102453;-82
2021/10/09 08:05:56;;;;;;;7.50;5.70;;;;;;;15.48;57.26;102313.66;4975206;28;102351;-82
2021/10/09 08:08:23;;;;;;;7.30;5.10;;;;;;;15.49;57.22;102315.31;4978623;28;102347;-81
2021/10/09 08:10:50;;;;;;;7.53;5.50;;;;;;;15.49;57.46;102320.78;4970298;28;102448;-80
2021/10/09 08:13:18;;;;;;;9.13;6.03;;;;;;;15.49;57.17;102317.22;4977214;28;102555;-80
2021/10/09 08:15:45;;;;;;;8.38;5.15;;;;;;;15.48;57.14;102330.13;4971669;28;102627;-81
2021/10/09 08:18:11;;;;;;;10.32;5.63;;;;;;;15.48;57.14;102324.63;4977977;28;102779;-82
2021/10/09 08:20:40;;;;;;;7.47;5.63;;;;;;;15.49;57.35;102315.31;4974231;28;103518;-82
2021/10/09 08:23:15;;;;;;;6.97;5.40;;;;;;;15.48;57.47;102324.63;4977809;28;101985;-82
2021/10/09 08:36:50;;;;;;;8.38;5.20;;;;;;;15.48;57.51;102313.66;4975821;28;102405;-89
2021/10/09 08:39:18;;;;;;;7.32;4.78;;;;;;;15.48;57.45;102319.16;4974444;28;102247;-80
2021/10/09 08:41:45;;;;;;;10.03;5.40;;;;;;;15.48;57.19;102315.59;4970220;28;104208;-89
2021/10/09 08:44:12;;;;;;;8.00;5.28;;;;;;;15.48;57.29;102324.63;4976244;28;102357;-90
2021/10/09 08:46:38;;;;;;;8.77;4.95;;;;;;;15.50;57.22;102308.72;4975512;28;102658;-90
2021/10/09 08:49:05;;;;;;;11.10;5.40;;;;;;;15.48;57.32;102302.69;4970193;28;102831;-88
2021/10/09 08:51:31;;;;;;;7.35;4.32;;;;;;;15.49;57.32;102298.84;4969870;28;104203;-91
2021/10/09 08:54:05;;;;;;;9.50;4.90;;;;;;;15.49;57.24;102298.84;4977875;28;102718;-90
2021/10/09 08:56:34;;;;;;;9.38;5.20;;;;;;;15.48;57.12;102302.69;4969123;28;102442;-80
2021/10/09 08:59:09;;;;;;;10.35;4.78;;;;;;;15.49;57.42;102304.34;4972234;28;102832;-87
2021/10/09 09:01:59;;;;;;;11.43;5.38;;;;;;;15.49;57.31;102309.81;4976788;28;102400;-92
2021/10/09 09:31:36;;;;;;;9.82;4.97;;;;;;;15.50;57.12;102296.91;4976511;28;103104;-89
2021/10/09 09:37:04;;;;;;;8.40;4.85;;;;;;;15.49;57.17;102298.03;4970149;28;102288;-88
2021/10/09 09:39:39;;;;;;;8.70;4.88;;;;;;;15.49;57.22;102287.88;4964663;28;104740;-80
2021/10/09 09:42:07;;;;;;;12.10;5.70;;;;;;;15.48;57.08;102291.72;4972289;28;102431;-80
2021/10/09 09:44:36;;;;;;;15.02;5.35;;;;;;;15.48;57.18;102299.94;4968052;28;103318;-80
2021/10/09 09:47:04;;;;;;;12.18;5.60;;;;;;;15.49;57.23;102303.50;4984721;28;102074;-80
2021/10/09 09:49:32;;;;;;;6.78;4.80;;;;;;;15.48;57.48;102297.19;4980250;28;102014;-80
2021/10/09 09:51:59;;;;;;;7.72;4.68;;;;;;;15.48;57.13;102291.72;4977417;28;102602;-80
2021/10/09 09:54:27;;;;;;;8.60;5.28;;;;;;;15.49;57.13;102287.88;4972094;28;102848;-80
2021/10/09 09:56:56;;;;;;;11.02;5.22;;;;;;;15.48;57.23;102294.47;4974835;28;102122;-90
2021/10/09 09:59:29;;;;;;;7.18;4.75;;;;;;;15.48;57.54;102291.72;4977498;28;102525;-89
2021/10/09 10:02:00;;;;;;;7.82;5.10;;;;;;;15.49;57.22;102306.25;4975720;28;102230;-90
2021/10/09 10:04:27;;;;;;;8.65;4.97;;;;;;;15.49;57.41;102304.34;4974215;28;103912;-89
2021/10/09 10:06:54;;;;;;;12.15;5.50;;;;;;;15.49;57.20;102298.03;4976581;28;102160;-91
2021/10/09 10:09:21;;;;;;;6.88;4.70;;;;;;;15.48;57.24;102302.69;4976341;28;102161;-88
2021/10/09 10:11:47;;;;;;;11.63;5.25;;;;;;;15.49;57.29;102298.03;4974064;28;102494;-88
2021/10/09 10:14:14;;;;;;;9.32;5.03;;;;;;;15.49;57.29;102298.84;4973521;28;103127;-89
2021/10/09 10:16:45;;;;;;;9.82;5.50;;;;;;;15.48;57.15;102319.16;4979147;28;102694;-81
2021/10/09 10:19:13;;;;;;;11.75;4.80;;;;;;;15.49;57.09;102304.34;4971437;28;102235;-80
2021/10/09 10:21:49;;;;;;;8.43;5.40;;;;;;;15.49;57.05;102307.06;4972395;28;102164;-80
2021/10/09 10:24:43;;;;;;;8.85;5.13;;;;;;;15.48;57.21;102302.69;4968026;28;103879;-80
2021/10/09 10:27:32;;;;;;;12.60;5.57;;;;;;;15.49;56.95;102298.84;4958376;28;102221;-81
2021/10/09 10:30:30;;;;;;;8.43;4.53;;;;;;;15.48;57.02;102297.19;4974018;28;103103;-80
2021/10/09 10:33:58;;;;;;;8.30;4.70;;;;;;;15.49;56.96;102304.34;4922893;28;102939;-89
2021/10/09 10:36:38;;;;;;;8.57;4.57;;;;;;;15.50;57.20;102308.72;4974305;28;103915;-81
2021/10/09 10:39:06;;;;;;;7.10;4.63;;;;;;;15.49;57.29;102287.03;4968022;28;102045;-80
2021/10/09 10:41:46;;;;;;;8.43;4.68;;;;;;;15.50;57.07;102307.91;4973526;28;102890;-81
2021/10/09 10:47:41;;;;;;;8.90;4.18;;;;;;;15.50;57.10;102310.66;4965532;28;107875;-80
2021/10/09 10:51:04;;;;;;;8.45;4.90;;;;;;;15.50;57.06;102311.47;4975268;28;103287;-80
2021/10/09 10:54:14;;;;;;;8.52;4.90;;;;;;;15.49;57.12;102304.34;4928670;28;102335;-80
2021/10/09 10:57:19;;;;;;;8.23;4.53;;;;;;;15.50;57.30;102311.47;4973185;28;102337;-80
2021/10/09 11:02:20;;;;;;;9.25;4.60;;;;;;;15.51;57.44;102304.91;4976737;28;102995;-80
2021/10/09 11:04:48;;;;;;;6.93;4.80;;;;;;;15.52;56.95;102314.78;4970723;28;102235;-80
2021/10/09 11:07:16;;;;;;;10.10;4.30;;;;;;;15.51;57.04;102310.41;4973727;28;102040;-81
2021/10/09 11:09:43;;;;;;;5.40;3.78;;;;;;;15.52;57.27;102309.28;4975807;28;103660;-80
2021/10/09 11:12:26;;;;;;;8.57;4.80;;;;;;;15.52;57.00;102306.56;4977125;28;102347;-81
2021/10/09 11:15:09;;;;;;;8.98;4.40;;;;;;;15.53;57.23;102310.13;4972860;28;102378;-89
2021/10/09 11:17:37;;;;;;;8.07;4.28;;;;;;;15.53;57.15;102310.94;4976976;28;102068;-91
2021/10/09 11:20:06;;;;;;;7.90;4.30;;;;;;;15.53;56.60;102313.69;4966066;28;103198;-91
2021/10/09 11:22:42;;;;;;;8.02;4.80;;;;;;;15.54;57.50;102306.28;4971030;28;102016;-87
2021/10/09 11:25:19;;;;;;;5.93;4.65;;;;;;;15.54;57.03;102309.88;4974151;28;102380;-91
2021/10/09 11:27:47;;;;;;;10.63;4.97;;;;;;;15.54;57.02;102320.84;4975533;28;103265;-90
2021/10/09 11:30:13;;;;;;;7.57;4.63;;;;;;;15.54;57.08;102320.84;4963702;28;102706;-91
2021/10/09 11:32:42;;;;;;;6.65;4.53;;;;;;;15.53;57.26;102324.66;4971218;28;102976;-87
2021/10/09 11:35:10;;;;;;;10.15;5.05;;;;;;;15.54;57.33;102326.31;4972968;28;103530;-86
2021/10/09 11:37:43;;;;;;;;;;;;;;;15.54;57.02;102329.06;4975896;28;103497;-88
2021/10/09 11:40:10;;;;;;;9.63;4.63;;;;;;;15.56;57.37;102326.88;4978170;28;103174;-86
2021/10/09 11:42:51;;;;;;;9.87;4.93;;;;;;;15.55;56.92;102324.41;4983526;28;103765;-85
2021/10/09 11:53:49;;;;;;;9.98;4.40;;;;;;;15.55;57.30;102327.97;4982387;28;102018;-87
2021/10/09 11:56:15;;;;;;;9.30;4.43;;;;;;;15.55;56.93;102333.47;4967507;28;102832;-85
2021/10/09 11:58:48;;;;;;;7.47;3.95;;;;;;;15.55;56.91;102336.22;4972043;28;102300;-85
2021/10/09 12:01:26;;;;;;;8.40;4.50;;;;;;;15.55;57.23;102330.72;4964343;28;105212;-86
2021/10/09 12:03:52;;;;;;;8.65;4.45;;;;;;;15.56;56.92;102348.00;4973401;28;102426;-86
2021/10/09 12:06:19;;;;;;;9.60;4.60;;;;;;;15.55;57.04;102344.44;4974473;28;102284;-86
2021/10/09 12:08:53;;;;;;;9.85;4.65;;;;;;;15.56;57.18;102337.84;4974489;28;102410;-85
2021/10/09 12:11:26;;;;;;;7.35;4.47;;;;;;;15.56;56.88;102331.53;4974745;28;102724;-81
2021/10/09 12:13:58;;;;;;;8.35;4.65;;;;;;;15.56;56.93;102337.03;4973620;28;102511;-80
2021/10/09 12:16:30;;;;;;;9.98;4.63;;;;;;;15.57;57.21;102344.16;4973391;28;102216;-81
2021/10/09 12:18:58;;;;;;;9.02;4.38;;;;;;;15.55;56.83;102344.44;4967328;28;103576;-81
2021/10/09 12:21:27;;;;;;;7.28;3.88;;;;;;;15.55;57.33;102347.19;4972953;28;102786;-81
2021/10/09 12:23:54;;;;;;;6.97;4.18;;;;;;;15.56;57.07;102353.50;4971755;28;102817;-81
2021/10/09 12:26:22;;;;;;;10.65;4.40;;;;;;;15.56;56.98;102348.81;4977225;28;102313;-80
2021/10/09 12:29:17;;;;;;;6.35;3.28;;;;;;;15.55;56.98;102369.13;4973018;28;103214;-81
2021/10/09 12:31:46;;;;;;;7.88;3.88;;;;;;;15.56;57.34;102353.50;4967175;28;102791;-81
2021/10/09 12:34:31;;;;;;;7.47;3.67;;;;;;;15.55;56.64;102358.16;4967112;28;102285;-82
2021/10/09 12:37:19;;;;;;;7.75;3.83;;;;;;;15.55;57.04;102358.16;4968231;28;103485;-80
2021/10/09 12:39:47;;;;;;;8.57;3.83;;;;;;;15.55;57.14;102358.16;4976402;28;103509;-81
2021/10/09 12:42:16;;;;;;;9.68;4.05;;;;;;;15.55;56.93;102363.66;4975306;28;102816;-81
2021/10/09 12:44:44;;;;;;;6.70;4.00;;;;;;;15.56;57.14;102354.31;4978537;28;102418;-81
2021/10/09 12:47:11;;;;;;;8.57;3.92;;;;;;;15.56;57.24;102359.81;4973097;28;102059;-80
2021/10/09 12:49:38;;;;;;;6.13;3.60;;;;;;;15.54;57.27;102362.00;4976387;28;102235;-83
2021/10/09 12:52:04;;;;;;;7.20;3.90;;;;;;;15.56;57.42;102357.06;4975773;28;102450;-84
2021/10/09 12:54:32;;;;;;;9.52;4.60;;;;;;;15.56;56.95;102354.31;4972304;28;103101;-83
2021/10/09 12:56:58;;;;;;;7.65;3.95;;;;;;;15.56;56.96;102353.50;4972625;28;102508;-85
2021/10/09 12:59:26;;;;;;;9.65;3.95;;;;;;;15.55;57.12;102358.16;4977920;28;103323;-86
2021/10/09 13:01:54;;;;;;;12.27;4.35;;;;;;;15.55;56.98;102347.19;4984520;28;102383;-84
2021/10/09 13:04:21;;;;;;;6.38;3.97;;;;;;;15.55;56.84;102351.84;4970419;28;102380;-83
2021/10/09 13:06:47;;;;;;;7.45;4.05;;;;;;;15.55;57.27;102351.84;4962761;28;102268;-85
2021/10/09 13:09:15;;;;;;;6.60;4.07;;;;;;;15.55;56.98;102351.84;4975495;28;102061;-81
2021/10/09 13:11:49;;;;;;;6.70;4.03;;;;;;;15.56;57.26;102348.00;4968767;28;104377;-81
2021/10/09 13:14:15;;;;;;;8.43;4.22;;;;;;;15.55;57.24;102335.38;4974249;28;102375;-83
2021/10/09 13:16:43;;;;;;;8.70;4.32;;;;;;;15.56;56.99;102337.03;4973674;28;102174;-81
2021/10/09 13:19:12;;;;;;;8.70;4.32;;;;;;;15.56;57.17;102343.34;4979145;28;102630;-81
2021/10/09 13:21:38;;;;;;;6.77;4.10;;;;;;;15.55;56.81;102349.94;4967031;28;103953;-81
2021/10/09 13:24:06;;;;;;;7.03;4.00;;;;;;;15.55;57.48;102341.69;4981673;28;102684;-85
2021/10/09 13:26:32;;;;;;;10.75;3.33;;;;;;;15.56;56.98;102348.00;4972658;28;102108;-89
2021/10/09 13:28:59;;;;;;;7.25;4.25;;;;;;;15.56;57.43;102346.09;4979493;28;102339;-87
2021/10/09 13:31:26;;;;;;;6.70;3.85;;;;;;;15.56;56.76;102343.34;4971919;28;104636;-85
2021/10/09 13:33:53;;;;;;;6.75;3.72;;;;;;;15.56;57.10;102348.81;4967367;28;102538;-85
2021/10/09 13:36:21;;;;;;;8.68;3.63;;;;;;;15.55;57.10;102338.94;4969506;28;102459;-87
2021/10/09 13:38:47;;;;;;;5.97;3.67;;;;;;;15.57;56.95;102350.47;4987443;28;102129;-83